Theodore Roosevelt National Park, ND

04:38 MDT le 24 juillet 2014 (GMT -0600)
Dickinson Municipal (KDIK) Alt. 2592 ft | 46.80 °N, 102.80 °W | Change Station
Avis météorologiques actifs: Severe Thunderstorm Watch Préavis actif: Public Information Statement

Current weather conditions updated 42 minutes ago

Clear
Ciel dégagé
63 ° F
Paraît 63 ° F
N
18
Vent Variable Vent de SE

Aujourd’hui il est prévu de faire plus chaud qu’hier.

Aujourd'hui
Haut(e) -- | Bas -- ° F
--% Risque de précip.
Hier
Haut(e) -- | Bas -- ° F
Precip. -- pouce
5:21 AM 8:33 PM
Lune descendante, 6% visible
Pression 29.83 pouce
Visibilité 10.0 Miles terrestres
Nuages Ciel dégagé
Point de rosée 56 ° F
Humidité 78%
Précipitations 0.00 pouce
Profondeur de la couche neigeuse Non disponible.
UV 0 sur 12
Pollen 6.90 sur 12
Qualité de l'air Non disponible.
Flu Activity Non disponible.
METAR KDIK 240956Z AUTO 14016KT 10SM CLR 17/13 A2987 RMK AO2 PK WND 14026/0944 SLP099 T01720133

More Conditions Fewer Conditions

Pression 29.83 pouce
Visibilité 10.0 Miles terrestres
Nuages Ciel dégagé
Point de rosée 56 ° F
Humidité 78%
Précipitations 0.00 pouce
Profondeur de la couche neigeuse Non disponible.
UV 0 sur 12
Pollen 6.90 sur 12
Qualité de l'air Non disponible.
Flu Activity Non disponible.
METAR KDIK 240956Z AUTO 14016KT 10SM CLR 17/13 A2987 RMK AO2 PK WND 14026/0944 SLP099 T01720133

More Conditions Fewer Conditions

10-Day Weather Forecast

Almanac

Astronomie

Jul. 24, 2014 Lever Coucher
Temps réel 05:21 MDT 20:33 MDT
Crépuscule civil 04:44 MDT 21:09 MDT
Crépuscule nautique 03:57 MDT 21:56 MDT
Crépuscule astronomique 02:57 MDT 22:55 MDT
Lune 03:32 MDT 18:47 MDT
Durée de lumière visible 16h 24m
Longueur du jour
15h 11m
Tomorrow will be 2m 16s shorter.
Lune descendante, 6% of the Moon is Illuminated
Aujourd'hui
Lune descendante
juil 26
Nouveau
août 3
Premier quartier
août 10
Pleine lune
août 17
Dernier quartier

Extrêmes aujourd'hui

State Highs State Lows

Community

WunderPhotos

Upload Photos

1,736,966 Photos téléchargées !

Nearby

Épaisseur de neige

Station Depth Altitude
Pas de nouvelles chutes de neige

Activité sismique

Ville Distance Mag. Time & Date
No recent earthquake activity has been reported nearby.
Minimum magnitude displayed is 2.5.

Températures des eaux côtières

Lieu Température
Aucun rapport de station

Stations météo à proximité

Il n'y a aucune station météorologique personnelle dans cette zone.